createdAt,value
2022-12-24T00:02:16.683Z,10.89
2022-12-24T00:05:19.557Z,10.98
2022-12-24T00:09:11.366Z,11.00
2022-12-24T00:12:16.364Z,10.94
2022-12-24T00:15:19.243Z,10.74
2022-12-24T00:18:21.941Z,10.90
2022-12-24T00:21:24.662Z,10.87
2022-12-24T00:24:28.774Z,10.87
2022-12-24T00:27:34.498Z,10.84
2022-12-24T00:30:38.960Z,10.84
2022-12-24T00:33:42.686Z,10.82
2022-12-24T00:36:45.425Z,10.80
2022-12-24T00:39:49.452Z,10.81
2022-12-24T00:42:54.873Z,10.85
2022-12-24T00:46:05.280Z,10.86
2022-12-24T00:49:10.176Z,10.74
2022-12-24T00:52:12.840Z,10.79
2022-12-24T00:55:17.015Z,10.85
2022-12-24T00:58:22.045Z,10.79
2022-12-24T01:01:25.646Z,10.78
2022-12-24T01:04:54.471Z,10.84
2022-12-24T01:07:57.110Z,10.82
2022-12-24T01:11:01.964Z,10.79
2022-12-24T01:14:04.755Z,10.74
2022-12-24T01:17:07.464Z,10.77
2022-12-24T01:20:15.017Z,10.78
2022-12-24T01:23:17.685Z,10.78
2022-12-24T01:26:22.347Z,10.78
2022-12-24T01:29:28.374Z,10.79
2022-12-24T01:32:31.104Z,10.75
2022-12-24T01:35:41.333Z,10.77
2022-12-24T01:38:44.007Z,10.70
2022-12-24T01:42:08.520Z,10.74
2022-12-24T01:45:50.195Z,10.63
2022-12-24T01:48:56.667Z,10.68
2022-12-24T01:52:04.206Z,10.77
2022-12-24T01:55:16.219Z,10.80
2022-12-24T01:58:22.691Z,10.84
2022-12-24T02:01:25.632Z,10.78
2022-12-24T02:04:35.009Z,10.81
2022-12-24T02:07:38.146Z,10.86
2022-12-24T02:10:48.126Z,10.85
2022-12-24T02:13:57.058Z,10.81
2022-12-24T02:17:10.531Z,10.80
2022-12-24T02:20:59.209Z,10.74
2022-12-24T02:24:23.732Z,10.72
2022-12-24T02:27:45.947Z,10.68
2022-12-24T02:30:58.626Z,10.66
2022-12-24T02:34:07.479Z,10.52
2022-12-24T02:37:16.403Z,10.41
2022-12-24T02:40:23.131Z,10.32
2022-12-24T02:43:30.492Z,10.26
2022-12-24T02:46:34.644Z,10.23
2022-12-24T02:49:39.404Z,10.15
2022-12-24T02:52:43.789Z,10.10
2022-12-24T02:55:56.653Z,10.10
2022-12-24T02:59:29.823Z,10.09
2022-12-24T03:02:49.608Z,10.16
2022-12-24T03:05:57.780Z,10.20
2022-12-24T03:09:03.052Z,10.22
2022-12-24T03:12:16.091Z,10.31
2022-12-24T03:15:21.405Z,10.28
2022-12-24T03:18:27.851Z,10.43
2022-12-24T03:21:34.056Z,10.50
2022-12-24T03:24:36.941Z,10.49
2022-12-24T03:27:40.433Z,10.51
2022-12-24T03:30:48.328Z,10.52
2022-12-24T03:33:52.793Z,10.52
2022-12-24T03:36:55.483Z,10.53
2022-12-24T03:40:04.073Z,10.57
2022-12-24T03:43:06.783Z,10.59
2022-12-24T03:46:12.387Z,10.58
2022-12-24T03:49:16.472Z,10.55
2022-12-24T03:52:19.140Z,10.51
2022-12-24T03:55:22.241Z,10.46
2022-12-24T03:58:32.181Z,10.43
2022-12-24T04:01:39.213Z,10.42
2022-12-24T04:04:46.610Z,10.42
2022-12-24T04:07:49.374Z,10.41
2022-12-24T04:10:55.177Z,10.43
2022-12-24T04:13:57.912Z,10.47
2022-12-24T04:17:03.090Z,10.52
2022-12-24T04:20:15.001Z,10.52
2022-12-24T04:23:19.420Z,10.56
2022-12-24T04:26:22.082Z,10.58
2022-12-24T04:29:25.068Z,10.58
2022-12-24T04:32:30.843Z,10.56
2022-12-24T04:35:34.893Z,10.59
2022-12-24T04:38:38.066Z,10.62
2022-12-24T04:41:43.734Z,10.63
2022-12-24T04:44:46.431Z,10.69
2022-12-24T04:47:49.072Z,10.73
2022-12-24T04:50:53.071Z,10.75
2022-12-24T04:53:59.066Z,10.75
2022-12-24T04:57:05.615Z,10.78
2022-12-24T05:00:09.703Z,10.83
2022-12-24T05:03:12.768Z,10.88
2022-12-24T05:06:22.008Z,10.88
2022-12-24T05:09:26.955Z,10.92
2022-12-24T05:12:37.034Z,10.94
2022-12-24T05:15:44.136Z,10.91
2022-12-24T05:18:47.186Z,10.90
2022-12-24T05:22:11.175Z,10.88
2022-12-24T05:25:31.329Z,10.87
2022-12-24T05:28:34.134Z,10.79
2022-12-24T05:31:37.363Z,10.72
2022-12-24T05:34:40.248Z,10.63
2022-12-24T05:37:46.406Z,10.60
2022-12-24T05:40:50.690Z,10.59
2022-12-24T05:43:55.590Z,10.54
2022-12-24T05:46:58.268Z,10.49
2022-12-24T05:50:00.923Z,10.43
2022-12-24T05:53:06.665Z,10.32
2022-12-24T05:56:21.054Z,10.27
2022-12-24T05:59:28.291Z,10.24
2022-12-24T06:02:33.345Z,10.21
2022-12-24T06:05:36.093Z,10.17
2022-12-24T06:08:49.041Z,10.15
2022-12-24T06:11:55.027Z,10.12
2022-12-24T06:14:59.144Z,10.13
2022-12-24T06:18:02.148Z,10.18
2022-12-24T06:21:05.942Z,10.24
2022-12-24T06:24:10.063Z,10.28
2022-12-24T06:27:13.124Z,10.33
2022-12-24T06:30:18.424Z,10.37
2022-12-24T06:33:27.273Z,10.40
2022-12-24T06:36:32.380Z,10.42
2022-12-24T06:39:36.369Z,10.44
2022-12-24T06:42:39.084Z,10.40
2022-12-24T06:45:46.625Z,10.42
2022-12-24T06:48:49.737Z,10.41
2022-12-24T06:51:58.511Z,10.36
2022-12-24T06:55:29.402Z,10.26
2022-12-24T06:58:32.645Z,10.25
2022-12-24T07:01:37.835Z,10.19
2022-12-24T07:04:40.630Z,10.18
2022-12-24T07:07:46.016Z,10.16
2022-12-24T07:10:54.318Z,10.10
2022-12-24T07:14:12.282Z,10.05
2022-12-24T07:17:15.056Z,9.97
2022-12-24T07:20:18.125Z,9.92
2022-12-24T07:23:20.910Z,9.90
2022-12-24T07:26:25.051Z,9.95
2022-12-24T07:29:27.798Z,9.99
2022-12-24T07:32:30.428Z,10.07
2022-12-24T07:35:39.194Z,10.13
2022-12-24T07:38:41.940Z,10.22
2022-12-24T07:42:14.403Z,10.28
2022-12-24T07:45:18.664Z,10.33
2022-12-24T07:48:21.450Z,10.40
2022-12-24T07:51:26.511Z,10.42
2022-12-24T07:54:29.217Z,10.46
2022-12-24T07:57:31.890Z,10.49
2022-12-24T08:00:35.932Z,10.54
2022-12-24T08:03:40.515Z,10.58
2022-12-24T08:06:45.464Z,10.63
2022-12-24T08:09:48.235Z,10.66
2022-12-24T08:12:50.923Z,10.71
2022-12-24T08:15:54.964Z,10.76
2022-12-24T08:18:57.632Z,10.83
2022-12-24T08:22:00.389Z,10.90
2022-12-24T08:25:03.308Z,10.96
2022-12-24T08:28:06.825Z,11.04
2022-12-24T08:31:11.080Z,11.08
2022-12-24T08:34:13.892Z,11.15
2022-12-24T08:37:16.541Z,11.19
2022-12-24T08:40:19.411Z,11.23
2022-12-24T08:43:25.542Z,11.29
2022-12-24T08:46:29.625Z,11.35
2022-12-24T08:49:32.315Z,11.40
2022-12-24T08:52:34.977Z,11.41
2022-12-24T08:55:38.272Z,11.47
2022-12-24T08:58:41.634Z,11.56
2022-12-24T09:01:45.855Z,11.63
2022-12-24T09:04:49.905Z,11.77
2022-12-24T09:07:52.561Z,11.92
2022-12-24T09:10:55.472Z,12.05
2022-12-24T09:13:58.134Z,12.08
2022-12-24T09:17:02.340Z,12.01
2022-12-24T09:20:11.904Z,11.90
2022-12-24T09:23:14.613Z,11.84
2022-12-24T09:26:20.016Z,11.77
2022-12-24T09:29:22.808Z,11.72
2022-12-24T09:32:26.879Z,11.67
2022-12-24T09:35:29.694Z,11.62
2022-12-24T09:38:33.060Z,11.60
2022-12-24T09:41:46.322Z,11.63
2022-12-24T09:44:55.125Z,11.78
2022-12-24T09:48:03.122Z,11.93
2022-12-24T09:51:10.040Z,12.07
2022-12-24T09:54:20.780Z,12.14
2022-12-24T09:57:29.479Z,12.24
2022-12-24T10:00:37.621Z,12.40
2022-12-24T10:03:41.819Z,12.58
2022-12-24T10:06:55.592Z,12.75
2022-12-24T10:10:10.679Z,12.91
2022-12-24T10:13:21.998Z,13.00
2022-12-24T10:16:32.800Z,13.13
2022-12-24T10:19:50.363Z,13.17
2022-12-24T10:23:00.245Z,13.19
2022-12-24T10:26:13.621Z,13.13
2022-12-24T10:29:19.634Z,13.14
2022-12-24T10:32:24.757Z,13.15
2022-12-24T10:35:34.280Z,13.15
2022-12-24T10:38:37.036Z,13.11
2022-12-24T10:41:40.228Z,13.12
2022-12-24T10:44:43.368Z,13.11
2022-12-24T10:47:50.747Z,13.22
2022-12-24T10:50:59.895Z,13.35
2022-12-24T10:54:08.523Z,13.45
2022-12-24T10:57:26.133Z,13.44
2022-12-24T11:00:35.639Z,13.43
2022-12-24T11:03:42.527Z,13.41
2022-12-24T11:06:58.256Z,13.31
2022-12-24T11:10:26.341Z,13.24
2022-12-24T11:13:39.128Z,13.19
2022-12-24T11:16:51.617Z,13.18
2022-12-24T11:19:54.493Z,13.11
2022-12-24T11:22:59.173Z,13.01
2022-12-24T11:26:05.000Z,12.90
2022-12-24T11:29:15.417Z,12.85
2022-12-24T11:32:20.748Z,12.83
2022-12-24T11:35:47.633Z,12.94
2022-12-24T11:39:00.841Z,13.10
2022-12-24T11:42:04.720Z,13.11
2022-12-24T11:45:18.589Z,13.09
2022-12-24T11:48:30.119Z,13.23
2022-12-24T11:51:40.607Z,13.25
2022-12-24T11:55:02.638Z,13.30
2022-12-24T11:58:19.604Z,13.29
2022-12-24T12:01:25.740Z,13.33
2022-12-24T12:04:31.814Z,13.34
2022-12-24T12:07:38.061Z,13.25
2022-12-24T12:10:44.508Z,13.24
2022-12-24T12:13:54.557Z,13.18
2022-12-24T12:17:06.040Z,13.08
2022-12-24T12:20:14.521Z,12.99
2022-12-24T12:23:21.819Z,13.07
2022-12-24T12:26:29.211Z,13.14
2022-12-24T12:29:42.434Z,13.14
2022-12-24T12:32:52.654Z,13.18
2022-12-24T12:36:03.287Z,13.21
2022-12-24T12:39:07.398Z,13.32
2022-12-24T12:42:20.375Z,13.35
2022-12-24T12:45:33.993Z,13.32
2022-12-24T12:48:50.016Z,13.33
2022-12-24T12:52:02.922Z,13.26
2022-12-24T12:55:24.927Z,13.15
2022-12-24T12:58:35.069Z,13.13
2022-12-24T13:01:46.418Z,13.12
2022-12-24T13:05:33.644Z,13.08
2022-12-24T13:09:13.337Z,13.00
2022-12-24T13:12:46.750Z,12.95
2022-12-24T13:16:06.063Z,12.85
2022-12-24T13:19:37.788Z,12.77
2022-12-24T13:22:48.385Z,12.74
2022-12-24T13:25:54.062Z,12.71
2022-12-24T13:29:16.881Z,12.68
2022-12-24T13:32:50.886Z,12.64
2022-12-24T13:36:04.900Z,12.57
2022-12-24T13:39:20.120Z,12.43
2022-12-24T13:42:55.633Z,12.37
2022-12-24T13:45:58.873Z,12.32
2022-12-24T13:49:20.702Z,12.22
2022-12-24T13:52:26.812Z,12.15
2022-12-24T13:55:31.603Z,12.09
2022-12-24T13:58:35.953Z,11.90
2022-12-24T14:01:43.401Z,11.73
2022-12-24T14:05:04.432Z,11.51
2022-12-24T14:08:11.899Z,11.49
2022-12-24T14:11:18.879Z,11.56
2022-12-24T14:14:31.136Z,11.56
2022-12-24T14:17:38.295Z,11.58
2022-12-24T14:20:42.348Z,11.62
2022-12-24T14:23:55.586Z,11.68
2022-12-24T14:27:02.186Z,11.55
2022-12-24T14:30:09.007Z,11.66
2022-12-24T14:33:30.062Z,11.44
2022-12-24T14:36:34.841Z,11.64
2022-12-24T14:39:41.552Z,11.44
2022-12-24T14:42:54.157Z,11.55
2022-12-24T14:46:05.925Z,11.56
2022-12-24T14:49:33.661Z,11.48
2022-12-24T14:53:07.341Z,11.44
2022-12-24T14:56:16.430Z,11.30
2022-12-24T14:59:21.424Z,11.18
2022-12-24T15:02:26.958Z,11.11
2022-12-24T15:05:33.705Z,11.02
2022-12-24T15:08:46.663Z,10.94
2022-12-24T15:12:00.829Z,10.95
2022-12-24T15:15:04.691Z,10.77
2022-12-24T15:18:07.557Z,10.86
2022-12-24T15:21:18.189Z,10.85
2022-12-24T15:24:28.945Z,10.81
2022-12-24T15:27:34.155Z,10.76
2022-12-24T15:30:37.075Z,10.73
2022-12-24T15:33:40.665Z,10.69
2022-12-24T15:36:43.446Z,10.72
2022-12-24T15:39:54.962Z,10.62
2022-12-24T15:42:57.792Z,10.61
2022-12-24T15:46:02.308Z,10.59
2022-12-24T15:49:05.340Z,10.55
2022-12-24T15:52:11.309Z,10.54
2022-12-24T15:55:35.158Z,10.36
2022-12-24T15:58:40.325Z,10.25
2022-12-24T16:01:45.084Z,10.20
2022-12-24T16:04:48.161Z,10.16
2022-12-24T16:08:11.069Z,10.04
2022-12-24T16:11:30.013Z,9.93
2022-12-24T16:14:34.268Z,10.03
2022-12-24T16:17:37.844Z,9.99
2022-12-24T16:20:40.720Z,9.96
2022-12-24T16:23:48.595Z,10.00
2022-12-24T16:26:52.853Z,10.06
2022-12-24T16:29:57.888Z,10.07
2022-12-24T16:33:03.836Z,10.09
2022-12-24T16:36:06.896Z,10.11
2022-12-24T16:39:24.748Z,10.12
2022-12-24T16:42:46.546Z,10.14
2022-12-24T16:45:52.630Z,10.19
2022-12-24T16:48:57.670Z,10.30
2022-12-24T16:52:00.367Z,10.44
2022-12-24T16:55:04.741Z,10.49
2022-12-24T16:58:08.978Z,10.54
2022-12-24T17:01:14.774Z,10.53
2022-12-24T17:04:18.621Z,10.61
2022-12-24T17:07:22.200Z,10.65
2022-12-24T17:10:25.663Z,10.63
2022-12-24T17:13:29.786Z,10.64
2022-12-24T17:16:33.090Z,10.69
2022-12-24T17:19:35.888Z,10.68
2022-12-24T17:22:39.321Z,10.64
2022-12-24T17:25:42.249Z,10.67
2022-12-24T17:28:46.274Z,10.64
2022-12-24T17:31:49.010Z,10.60
2022-12-24T17:34:51.720Z,10.59
2022-12-24T17:37:54.417Z,10.60
2022-12-24T17:41:01.848Z,10.66
2022-12-24T17:44:12.583Z,10.62
2022-12-24T17:47:15.309Z,10.66
2022-12-24T17:50:18.214Z,10.62
2022-12-24T17:53:20.909Z,10.61
2022-12-24T17:56:23.628Z,10.59
2022-12-24T17:59:29.987Z,10.66
2022-12-24T18:02:32.912Z,10.63
2022-12-24T18:05:36.610Z,10.67
2022-12-24T18:08:43.218Z,10.67
2022-12-24T18:11:46.661Z,10.63
2022-12-24T18:14:59.959Z,10.54
2022-12-24T18:18:11.214Z,10.53
2022-12-24T18:21:14.125Z,10.40
2022-12-24T18:24:17.020Z,10.20
2022-12-24T18:27:19.708Z,10.22
2022-12-24T18:30:27.790Z,10.17
2022-12-24T18:33:31.858Z,10.14
2022-12-24T18:36:37.849Z,10.01
2022-12-24T18:39:40.661Z,10.03
2022-12-24T18:42:43.347Z,9.94
2022-12-24T18:45:48.908Z,9.82
2022-12-24T18:48:52.280Z,9.80
2022-12-24T18:52:07.800Z,9.83
2022-12-24T18:55:11.371Z,9.75
2022-12-24T18:58:14.111Z,9.81
2022-12-24T19:01:20.315Z,9.76
2022-12-24T19:04:23.048Z,9.60
2022-12-24T19:07:25.842Z,9.84
2022-12-24T19:10:28.589Z,9.83
2022-12-24T19:13:31.388Z,9.71
2022-12-24T19:16:37.700Z,9.82
2022-12-24T19:19:40.611Z,9.87
2022-12-24T19:22:43.431Z,9.87
2022-12-24T19:25:46.714Z,9.76
2022-12-24T19:28:50.046Z,9.87
2022-12-24T19:31:54.202Z,9.99
2022-12-24T19:34:56.996Z,10.04
2022-12-24T19:37:59.689Z,9.87
2022-12-24T19:41:07.668Z,9.90
2022-12-24T19:44:10.943Z,9.76
2022-12-24T19:47:14.996Z,9.76
2022-12-24T19:50:18.239Z,9.54
2022-12-24T19:53:21.062Z,9.64
2022-12-24T19:56:26.019Z,9.67
2022-12-24T19:59:33.167Z,9.68
2022-12-24T20:02:37.758Z,9.53
2022-12-24T20:05:46.904Z,9.52
2022-12-24T20:08:52.520Z,9.56
2022-12-24T20:11:55.345Z,9.48
2022-12-24T20:14:58.464Z,9.48
2022-12-24T20:18:03.158Z,9.43
2022-12-24T20:21:08.733Z,9.30
2022-12-24T20:24:11.737Z,9.31
2022-12-24T20:27:14.626Z,9.28
2022-12-24T20:30:17.391Z,9.31
2022-12-24T20:33:22.114Z,9.27
2022-12-24T20:36:26.405Z,9.32
2022-12-24T20:39:29.074Z,9.46
2022-12-24T20:42:32.296Z,9.35
2022-12-24T20:45:35.162Z,9.40
2022-12-24T20:48:41.545Z,9.45
2022-12-24T20:51:46.252Z,9.48
2022-12-24T20:54:51.360Z,9.40
2022-12-24T20:57:54.029Z,9.27
2022-12-24T21:00:57.307Z,9.31
2022-12-24T21:04:05.498Z,9.28
2022-12-24T21:07:09.790Z,9.32
2022-12-24T21:10:13.922Z,9.24
2022-12-24T21:13:15.594Z,9.26
2022-12-24T21:16:25.990Z,9.26
2022-12-24T21:19:37.404Z,9.30
2022-12-24T21:22:41.306Z,9.18
2022-12-24T21:25:57.236Z,9.19
2022-12-24T21:29:04.488Z,9.19
2022-12-24T21:32:13.388Z,9.15
2022-12-24T21:35:20.031Z,9.02
2022-12-24T21:38:22.646Z,9.05
2022-12-24T21:41:29.031Z,9.05
2022-12-24T21:44:36.644Z,8.94
2022-12-24T21:47:39.287Z,8.99
2022-12-24T21:50:57.151Z,9.03
2022-12-24T21:54:23.494Z,9.08
2022-12-24T21:57:46.640Z,9.07
2022-12-24T22:00:49.347Z,9.08
2022-12-24T22:03:52.022Z,9.00
2022-12-24T22:07:15.846Z,8.99
2022-12-24T22:10:36.232Z,8.94
2022-12-24T22:13:38.896Z,8.84
2022-12-24T22:16:41.691Z,8.77
2022-12-24T22:19:44.796Z,8.76
2022-12-24T22:22:49.581Z,8.75
2022-12-24T22:25:52.429Z,8.67
2022-12-24T22:28:55.131Z,8.75
2022-12-24T22:31:57.853Z,8.74
2022-12-24T22:35:00.615Z,8.79
2022-12-24T22:38:04.833Z,8.76
2022-12-24T22:41:09.018Z,8.69
2022-12-24T22:44:11.751Z,8.68
2022-12-24T22:47:17.530Z,8.56
2022-12-24T22:50:20.203Z,8.67
2022-12-24T22:53:24.373Z,8.65
2022-12-24T22:56:27.052Z,8.68
2022-12-24T22:59:29.763Z,8.58
2022-12-24T23:02:33.538Z,8.50
2022-12-24T23:05:36.460Z,8.49
2022-12-24T23:08:43.075Z,8.35
2022-12-24T23:11:45.971Z,8.32
2022-12-24T23:14:56.718Z,8.22
2022-12-24T23:17:59.382Z,8.38
2022-12-24T23:21:08.540Z,8.45
2022-12-24T23:24:12.626Z,8.46
2022-12-24T23:27:15.399Z,8.52
2022-12-24T23:30:18.164Z,8.56
2022-12-24T23:33:20.811Z,8.47
2022-12-24T23:36:23.462Z,8.50
2022-12-24T23:39:28.140Z,8.45
2022-12-24T23:42:31.132Z,8.52
2022-12-24T23:45:33.767Z,8.64
2022-12-24T23:48:36.829Z,8.60
2022-12-24T23:51:39.591Z,8.53
2022-12-24T23:54:43.949Z,8.54
2022-12-24T23:57:46.627Z,8.64
